Terminal Aerodrome Forecast
Issued by NWS Tuscon, AZ

Home | Current Version | Previous Version | Text Only | Print | Product List | Glossary On
Versions: 1 2 3 4 5 6 7 8 9 10 11 12 13 14 15
313
FTUS45 KTWC 312321
TAFTUS
TAF
KTUS 312321Z 0100/0124 12011KT P6SM VCTS BKN080CB BKN120
     FM010200 14009KT P6SM FEW080 BKN140
     FM010700 13012KT P6SM SCT120
     FM012000 09007KT P6SM SCT080 BKN120=

USA.gov is the U.S. government's official web portal to all federal, state and local government web resources and services.